createdAt,value
2022-08-23T00:02:29.489Z,1.15
2022-08-23T00:05:09.132Z,1.00
2022-08-23T00:07:41.825Z,1.38
2022-08-23T00:10:13.390Z,1.20
2022-08-23T00:12:45.251Z,1.25
2022-08-23T00:15:16.783Z,0.98
2022-08-23T00:17:48.710Z,1.20
2022-08-23T00:20:20.363Z,1.08
2022-08-23T00:22:52.480Z,1.00
2022-08-23T00:25:23.993Z,0.97
2022-08-23T00:27:56.035Z,0.70
2022-08-23T00:30:27.548Z,1.10
2022-08-23T00:32:59.435Z,1.02
2022-08-23T00:35:30.961Z,0.70
2022-08-23T00:38:31.941Z,0.90
2022-08-23T00:40:54.804Z,1.20
2022-08-23T00:43:45.071Z,1.20
2022-08-23T00:46:35.653Z,0.95
2022-08-23T00:49:07.180Z,0.75
2022-08-23T00:51:43.085Z,0.90
2022-08-23T00:54:24.932Z,1.15
2022-08-23T00:56:56.836Z,1.08
2022-08-23T00:59:28.940Z,0.93
2022-08-23T01:02:01.376Z,0.90
2022-08-23T01:04:32.933Z,1.38
2022-08-23T01:07:04.886Z,1.13
2022-08-23T01:09:36.405Z,1.33
2022-08-23T01:12:08.355Z,1.08
2022-08-23T01:14:39.891Z,1.10
2022-08-23T01:17:11.817Z,1.52
2022-08-23T01:19:43.338Z,0.80
2022-08-23T01:22:15.195Z,1.10
2022-08-23T01:25:07.345Z,0.88
2022-08-23T01:27:38.585Z,0.90
2022-08-23T01:30:10.120Z,0.82
2022-08-23T01:32:42.147Z,1.30
2022-08-23T01:35:14.066Z,0.80
2022-08-23T01:37:46.199Z,1.23
2022-08-23T01:40:17.824Z,0.83
2022-08-23T01:42:49.733Z,0.93
2022-08-23T01:45:21.291Z,1.10
2022-08-23T01:47:53.117Z,1.23
2022-08-23T01:50:24.666Z,1.20
2022-08-23T01:52:56.625Z,0.98
2022-08-23T01:55:29.189Z,1.13
2022-08-23T01:58:00.722Z,0.77
2022-08-23T02:00:33.220Z,1.23
2022-08-23T02:03:04.747Z,1.00
2022-08-23T02:05:37.282Z,1.25
2022-08-23T02:08:27.733Z,0.98
2022-08-23T02:10:59.590Z,1.00
2022-08-23T02:13:31.132Z,1.00
2022-08-23T02:16:03.097Z,1.25
2022-08-23T02:18:34.652Z,1.10
2022-08-23T02:23:40.921Z,1.02
2022-08-23T02:26:12.888Z,1.05
2022-08-23T02:28:44.935Z,1.00
2022-08-23T02:31:16.774Z,0.70
2022-08-23T02:36:39.722Z,0.90
2022-08-23T02:39:11.280Z,1.17
2022-08-23T02:41:42.918Z,0.98
2022-08-23T02:44:14.480Z,0.90
2022-08-23T02:46:46.574Z,1.30
2022-08-23T02:49:18.394Z,1.10
2022-08-23T02:51:50.358Z,1.10
2022-08-23T02:54:22.073Z,1.52
2022-08-23T02:56:54.283Z,0.98
2022-08-23T02:59:25.872Z,1.20
2022-08-23T03:01:57.486Z,1.05
2022-08-23T03:04:29.106Z,1.40
2022-08-23T03:07:00.697Z,1.23
2022-08-23T03:09:32.262Z,1.17
2022-08-23T03:12:04.223Z,1.25
2022-08-23T03:14:37.935Z,0.80
2022-08-23T03:17:09.540Z,1.00
2022-08-23T03:19:41.114Z,1.48
2022-08-23T03:22:13.213Z,1.20
2022-08-23T03:24:45.358Z,1.10
2022-08-23T03:27:16.921Z,1.13
2022-08-23T03:29:49.166Z,0.90
2022-08-23T03:32:20.727Z,1.10
2022-08-23T03:34:52.498Z,0.80
2022-08-23T03:37:24.046Z,1.40
2022-08-23T03:39:56.118Z,1.23
2022-08-23T03:42:30.866Z,1.13
2022-08-23T03:45:03.263Z,1.20
2022-08-23T03:47:35.189Z,1.00
2022-08-23T03:50:07.032Z,1.23
2022-08-23T03:52:38.576Z,1.15
2022-08-23T03:55:10.455Z,1.20
2022-08-23T03:57:41.959Z,1.30
2022-08-23T04:00:13.653Z,1.52
2022-08-23T04:02:51.831Z,1.42
2022-08-23T04:05:23.809Z,1.40
2022-08-23T04:07:55.418Z,1.38
2022-08-23T04:10:27.392Z,1.08
2022-08-23T04:12:58.997Z,1.30
2022-08-23T04:15:31.417Z,1.23
2022-08-23T04:18:03.028Z,1.08
2022-08-23T04:20:35.074Z,1.40
2022-08-23T04:23:06.622Z,1.40
2022-08-23T04:25:39.134Z,1.40
2022-08-23T04:28:10.636Z,1.10
2022-08-23T04:30:42.629Z,1.40
2022-08-23T04:33:18.433Z,1.20
2022-08-23T04:35:53.249Z,1.50
2022-08-23T04:38:25.423Z,1.30
2022-08-23T04:41:16.101Z,1.30
2022-08-23T04:43:47.603Z,1.30
2022-08-23T04:46:19.439Z,1.35
2022-08-23T04:48:51.391Z,1.33
2022-08-23T04:51:22.890Z,1.30
2022-08-23T04:53:55.773Z,1.60
2022-08-23T04:56:28.387Z,1.52
2022-08-23T04:59:00.377Z,1.48
2022-08-23T05:01:31.891Z,1.30
2022-08-23T05:04:03.506Z,1.25
2022-08-23T05:06:35.137Z,1.35
2022-08-23T05:09:07.028Z,2.00
2022-08-23T05:11:38.512Z,1.17
2022-08-23T05:14:10.412Z,1.55
2022-08-23T05:16:41.913Z,1.48
2022-08-23T05:19:13.957Z,1.38
2022-08-23T05:21:45.493Z,1.60
2022-08-23T05:24:17.309Z,1.80
2022-08-23T05:26:48.817Z,1.50
2022-08-23T05:29:21.916Z,1.20
2022-08-23T05:31:53.800Z,1.45
2022-08-23T05:34:26.005Z,1.38
2022-08-23T05:36:57.551Z,1.55
2022-08-23T05:39:35.999Z,1.38
2022-08-23T05:42:08.700Z,1.98
2022-08-23T05:44:40.494Z,1.35
2022-08-23T05:47:12.031Z,1.30
2022-08-23T05:49:43.834Z,1.25
2022-08-23T05:52:15.395Z,1.10
2022-08-23T05:54:47.305Z,1.27
2022-08-23T05:57:18.826Z,1.40
2022-08-23T05:59:50.649Z,1.60
2022-08-23T06:02:22.147Z,1.38
2022-08-23T06:04:57.258Z,1.48
2022-08-23T06:07:28.973Z,1.50
2022-08-23T06:10:00.876Z,1.33
2022-08-23T06:12:32.426Z,1.40
2022-08-23T06:17:37.576Z,1.33
2022-08-23T06:20:10.623Z,1.63
2022-08-23T06:22:42.176Z,1.33
2022-08-23T06:25:13.986Z,1.30
2022-08-23T06:27:45.520Z,1.02
2022-08-23T06:30:17.338Z,1.10
2022-08-23T06:32:48.904Z,1.38
2022-08-23T06:35:38.287Z,1.40
2022-08-23T06:38:11.163Z,1.45
2022-08-23T06:40:43.281Z,1.40
2022-08-23T06:43:14.814Z,1.45
2022-08-23T06:45:54.878Z,1.65
2022-08-23T06:48:29.887Z,1.23
2022-08-23T06:51:01.771Z,1.42
2022-08-23T06:53:33.308Z,1.85
2022-08-23T06:56:05.303Z,1.00
2022-08-23T06:58:36.811Z,1.37
2022-08-23T07:01:18.797Z,1.30
2022-08-23T07:04:00.174Z,1.50
2022-08-23T07:06:32.303Z,1.30
2022-08-23T07:09:03.830Z,1.23
2022-08-23T07:11:35.773Z,1.10
2022-08-23T07:14:07.402Z,1.50
2022-08-23T07:16:39.284Z,1.20
2022-08-23T07:19:10.828Z,1.73
2022-08-23T07:21:42.704Z,1.50
2022-08-23T07:24:14.914Z,1.10
2022-08-23T07:26:46.462Z,1.20
2022-08-23T07:29:18.353Z,1.30
2022-08-23T07:31:49.943Z,1.20
2022-08-23T07:34:21.833Z,0.93
2022-08-23T07:36:53.436Z,1.45
2022-08-23T07:39:27.021Z,1.33
2022-08-23T07:41:58.549Z,1.90
2022-08-23T07:44:34.552Z,1.17
2022-08-23T07:47:06.094Z,1.15
2022-08-23T07:49:38.140Z,1.40
2022-08-23T07:52:12.164Z,1.08
2022-08-23T07:54:48.366Z,1.23
2022-08-23T07:57:20.393Z,1.30
2022-08-23T07:59:52.215Z,1.30
2022-08-23T08:02:23.785Z,1.88
2022-08-23T08:04:55.633Z,1.10
2022-08-23T08:07:27.612Z,1.08
2022-08-23T08:10:02.835Z,1.13
2022-08-23T08:12:34.360Z,1.00
2022-08-23T08:15:06.241Z,0.95
2022-08-23T08:17:37.761Z,1.37
2022-08-23T08:20:09.801Z,1.20
2022-08-23T08:22:46.707Z,1.40
2022-08-23T08:25:19.631Z,1.35
2022-08-23T08:27:51.155Z,1.38
2022-08-23T08:30:23.050Z,1.25
2022-08-23T08:32:54.608Z,1.27
2022-08-23T08:35:26.412Z,1.02
2022-08-23T08:37:58.102Z,1.43
2022-08-23T08:40:30.706Z,1.10
2022-08-23T08:43:05.581Z,1.27
2022-08-23T08:45:37.737Z,1.45
2022-08-23T08:48:13.320Z,1.33
2022-08-23T08:50:45.580Z,1.20
2022-08-23T08:53:17.090Z,1.07
2022-08-23T08:55:48.766Z,1.45
2022-08-23T08:58:20.255Z,1.08
2022-08-23T09:00:56.571Z,1.20
2022-08-23T09:03:28.411Z,0.95
2022-08-23T09:06:00.365Z,1.10
2022-08-23T09:08:31.898Z,1.30
2022-08-23T09:11:07.106Z,1.02
2022-08-23T09:13:40.295Z,1.13
2022-08-23T09:16:15.926Z,1.10
2022-08-23T09:18:47.661Z,1.10
2022-08-23T09:21:19.691Z,1.08
2022-08-23T09:23:57.124Z,1.00
2022-08-23T09:26:32.992Z,1.23
2022-08-23T09:29:04.581Z,1.30
2022-08-23T09:31:36.813Z,1.17
2022-08-23T09:34:08.376Z,1.10
2022-08-23T09:36:40.332Z,1.10
2022-08-23T09:39:11.829Z,1.30
2022-08-23T09:41:44.063Z,1.33
2022-08-23T09:44:16.980Z,1.13
2022-08-23T09:46:48.481Z,1.20
2022-08-23T09:49:21.401Z,1.38
2022-08-23T09:51:54.232Z,1.00
2022-08-23T09:54:26.156Z,1.35
2022-08-23T09:56:57.704Z,1.10
2022-08-23T09:59:29.840Z,1.10
2022-08-23T10:02:02.313Z,1.30
2022-08-23T10:04:34.553Z,1.30
2022-08-23T10:07:06.244Z,1.17
2022-08-23T10:09:38.376Z,1.30
2022-08-23T10:12:09.921Z,1.15
2022-08-23T10:14:43.348Z,1.20
2022-08-23T10:17:14.973Z,1.30
2022-08-23T10:19:47.745Z,1.17
2022-08-23T10:22:19.556Z,1.10
2022-08-23T10:24:51.424Z,1.27
2022-08-23T10:27:41.964Z,1.20
2022-08-23T10:30:13.852Z,1.20
2022-08-23T10:32:46.154Z,1.45
2022-08-23T10:35:18.062Z,1.35
2022-08-23T10:37:49.623Z,1.20
2022-08-23T10:40:21.562Z,1.38
2022-08-23T10:42:53.337Z,1.20
2022-08-23T10:45:25.722Z,1.33
2022-08-23T10:47:59.037Z,1.25
2022-08-23T10:50:31.014Z,1.52
2022-08-23T10:53:02.570Z,1.35
2022-08-23T10:55:57.810Z,1.38
2022-08-23T10:58:30.855Z,1.48
2022-08-23T11:01:02.961Z,1.52
2022-08-23T11:03:34.610Z,1.70
2022-08-23T11:06:06.439Z,1.60
2022-08-23T11:08:47.512Z,1.52
2022-08-23T11:11:19.952Z,1.40
2022-08-23T11:13:51.473Z,1.63
2022-08-23T11:16:23.330Z,1.45
2022-08-23T11:18:54.878Z,1.60
2022-08-23T11:21:28.781Z,1.77
2022-08-23T11:24:00.334Z,1.45
2022-08-23T11:26:36.656Z,1.77
2022-08-23T11:29:08.250Z,1.45
2022-08-23T11:31:41.423Z,1.50
2022-08-23T11:34:13.291Z,1.55
2022-08-23T11:36:44.866Z,1.70
2022-08-23T11:39:21.629Z,1.80
2022-08-23T11:41:57.097Z,1.52
2022-08-23T11:44:29.193Z,1.52
2022-08-23T11:47:00.806Z,1.60
2022-08-23T11:49:34.627Z,1.20
2022-08-23T11:52:06.523Z,1.67
2022-08-23T11:54:39.729Z,2.35
2022-08-23T11:57:11.266Z,1.50
2022-08-23T11:59:43.174Z,1.58
2022-08-23T12:02:18.439Z,1.48
2022-08-23T12:04:51.781Z,1.38
2022-08-23T12:07:24.147Z,1.38
2022-08-23T12:09:56.896Z,1.50
2022-08-23T12:12:28.476Z,1.23
2022-08-23T12:15:00.448Z,1.60
2022-08-23T12:17:31.982Z,1.40
2022-08-23T12:20:16.342Z,1.30
2022-08-23T12:22:48.603Z,1.52
2022-08-23T12:25:20.799Z,1.55
2022-08-23T12:27:52.499Z,1.70
2022-08-23T12:30:24.420Z,2.03
2022-08-23T12:32:56.016Z,1.83
2022-08-23T12:35:27.900Z,1.63
2022-08-23T12:37:59.473Z,1.83
2022-08-23T12:40:32.084Z,1.90
2022-08-23T12:43:03.918Z,1.67
2022-08-23T12:45:35.634Z,1.75
2022-08-23T12:48:07.187Z,1.70
2022-08-23T12:50:39.059Z,1.52
2022-08-23T12:53:10.608Z,2.10
2022-08-23T12:55:42.553Z,2.00
2022-08-23T12:58:14.107Z,2.08
2022-08-23T13:00:45.984Z,1.65
2022-08-23T13:03:17.588Z,1.60
2022-08-23T13:05:52.787Z,1.35
2022-08-23T13:08:34.155Z,1.40
2022-08-23T13:11:08.539Z,1.50
2022-08-23T13:13:40.215Z,1.20
2022-08-23T13:16:12.151Z,1.38
2022-08-23T13:18:43.774Z,1.08
2022-08-23T13:21:15.728Z,1.13
2022-08-23T13:23:47.847Z,1.20
2022-08-23T13:26:19.965Z,1.10
2022-08-23T13:28:52.038Z,1.30
2022-08-23T13:31:23.703Z,1.55
2022-08-23T13:33:55.631Z,1.10
2022-08-23T13:36:27.609Z,1.05
2022-08-23T13:38:59.615Z,1.00
2022-08-23T13:41:31.162Z,0.95
2022-08-23T13:44:03.193Z,1.17
2022-08-23T13:46:34.915Z,1.17
2022-08-23T13:49:06.975Z,1.10
2022-08-23T13:51:38.837Z,0.90
2022-08-23T13:54:11.114Z,1.35
2022-08-23T13:56:42.733Z,1.20
2022-08-23T13:59:14.550Z,1.60
2022-08-23T14:01:46.132Z,1.00
2022-08-23T14:04:18.299Z,1.05
2022-08-23T14:06:51.396Z,1.05
2022-08-23T14:09:23.289Z,1.30
2022-08-23T14:11:54.838Z,1.30
2022-08-23T14:14:26.820Z,1.02
2022-08-23T14:17:02.489Z,1.00
2022-08-23T14:22:26.346Z,1.17
2022-08-23T14:24:58.440Z,1.40
2022-08-23T14:27:29.985Z,1.48
2022-08-23T14:30:01.622Z,1.20
2022-08-23T14:32:33.191Z,1.35
2022-08-23T14:35:05.310Z,1.25
2022-08-23T14:40:29.352Z,1.35
2022-08-23T14:43:01.038Z,1.70
2022-08-23T14:45:33.055Z,1.30
2022-08-23T14:48:04.590Z,1.50
2022-08-23T14:50:36.911Z,1.83
2022-08-23T14:53:08.512Z,1.47
2022-08-23T14:55:40.362Z,1.55
2022-08-23T14:58:11.884Z,1.60
2022-08-23T15:00:43.799Z,1.60
2022-08-23T15:03:15.372Z,1.23
2022-08-23T15:05:47.208Z,1.30
2022-08-23T15:08:18.792Z,1.57
2022-08-23T15:12:57.042Z,1.42
2022-08-23T15:13:55.603Z,1.30
2022-08-23T15:16:28.217Z,1.27
2022-08-23T15:19:00.092Z,1.20
2022-08-23T15:21:31.997Z,1.20
2022-08-23T15:24:03.632Z,1.42
2022-08-23T15:26:35.194Z,1.25
2022-08-23T15:29:07.132Z,1.30
2022-08-23T15:31:38.685Z,1.58
2022-08-23T15:34:12.789Z,1.38
2022-08-23T15:36:44.491Z,1.52
2022-08-23T15:39:16.487Z,1.17
2022-08-23T15:41:48.036Z,1.17
2022-08-23T15:44:19.898Z,1.20
2022-08-23T15:46:51.428Z,1.48
2022-08-23T15:49:23.260Z,1.50
2022-08-23T15:51:54.806Z,1.25
2022-08-23T15:54:26.677Z,1.13
2022-08-23T15:56:58.212Z,1.13
2022-08-23T15:59:30.360Z,1.67
2022-08-23T16:02:01.986Z,1.40
2022-08-23T16:04:35.638Z,1.55
2022-08-23T16:07:07.526Z,1.50
2022-08-23T16:09:39.489Z,1.48
2022-08-23T16:12:11.001Z,0.95
2022-08-23T16:14:42.789Z,1.27
2022-08-23T16:17:15.082Z,1.55
2022-08-23T16:19:46.916Z,1.23
2022-08-23T16:22:18.516Z,1.50
2022-08-23T16:24:50.395Z,1.35
2022-08-23T16:27:21.879Z,1.50
2022-08-23T16:29:53.817Z,0.90
2022-08-23T16:32:25.489Z,1.50
2022-08-23T16:34:57.332Z,1.60
2022-08-23T16:37:28.856Z,1.15
2022-08-23T16:40:00.888Z,1.05
2022-08-23T16:42:32.460Z,0.90
2022-08-23T16:45:04.325Z,1.08
2022-08-23T16:47:35.848Z,1.23
2022-08-23T16:50:07.605Z,1.25
2022-08-23T16:52:39.466Z,1.20
2022-08-23T16:55:11.338Z,1.10
2022-08-23T16:57:42.870Z,1.17
2022-08-23T17:00:15.748Z,1.00
2022-08-23T17:02:47.358Z,1.08
2022-08-23T17:05:19.396Z,2.22
2022-08-23T17:07:51.297Z,1.90
2022-08-23T17:10:22.799Z,1.13
2022-08-23T17:12:54.695Z,1.10
2022-08-23T17:15:26.185Z,1.60
2022-08-23T17:17:58.003Z,1.10
2022-08-23T17:20:29.568Z,1.02
2022-08-23T17:23:01.646Z,1.30
2022-08-23T17:25:37.452Z,1.35
2022-08-23T17:28:09.348Z,0.95
2022-08-23T17:30:40.923Z,1.37
2022-08-23T17:33:12.884Z,1.23
2022-08-23T17:35:45.524Z,1.30
2022-08-23T17:38:17.373Z,1.70
2022-08-23T17:40:48.978Z,1.30
2022-08-23T17:43:20.859Z,1.60
2022-08-23T17:45:52.448Z,2.05
2022-08-23T17:48:24.583Z,1.48
2022-08-23T17:51:01.516Z,1.27
2022-08-23T17:53:33.501Z,1.48
2022-08-23T17:56:05.848Z,1.30
2022-08-23T17:58:41.757Z,1.88
2022-08-23T18:01:13.957Z,1.48
2022-08-23T18:03:45.894Z,1.38
2022-08-23T18:06:17.542Z,1.77
2022-08-23T18:08:49.429Z,2.25
2022-08-23T18:11:20.931Z,1.65
2022-08-23T18:13:53.529Z,1.60
2022-08-23T18:16:31.728Z,1.88
2022-08-23T18:19:06.507Z,1.90
2022-08-23T18:21:42.684Z,1.73
2022-08-23T18:24:14.270Z,1.60
2022-08-23T18:27:04.748Z,1.80
2022-08-23T18:29:36.599Z,2.05
2022-08-23T18:32:08.141Z,1.88
2022-08-23T18:34:42.443Z,1.80
2022-08-23T18:37:17.182Z,1.60
2022-08-23T18:39:49.207Z,1.73
2022-08-23T18:42:20.789Z,2.00
2022-08-23T18:44:52.594Z,1.30
2022-08-23T18:47:24.150Z,1.45
2022-08-23T18:49:56.035Z,1.25
2022-08-23T18:52:29.230Z,1.60
2022-08-23T18:55:03.081Z,1.88
2022-08-23T18:57:34.657Z,1.77
2022-08-23T19:00:06.881Z,1.42
2022-08-23T19:02:38.438Z,1.50
2022-08-23T19:07:43.727Z,1.42
2022-08-23T19:10:20.157Z,1.50
2022-08-23T19:12:54.375Z,1.40
2022-08-23T19:15:26.149Z,1.55
2022-08-23T19:18:01.301Z,1.70
2022-08-23T19:20:32.842Z,1.50
2022-08-23T19:23:05.074Z,1.92
2022-08-23T19:25:38.368Z,1.90
2022-08-23T19:28:10.211Z,1.90
2022-08-23T19:30:42.196Z,2.45
2022-08-23T19:33:13.826Z,2.20
2022-08-23T19:35:45.544Z,2.67
2022-08-23T19:38:17.383Z,2.05
2022-08-23T19:40:49.209Z,2.67
2022-08-23T19:43:21.004Z,2.30
2022-08-23T19:45:52.589Z,2.47
2022-08-23T19:48:24.438Z,1.85
2022-08-23T19:50:55.974Z,1.83
2022-08-23T19:53:27.863Z,2.15
2022-08-23T19:55:59.773Z,2.40
2022-08-23T19:58:31.286Z,2.25
2022-08-23T20:01:02.910Z,2.33
2022-08-23T20:03:34.442Z,2.45
2022-08-23T20:06:05.959Z,2.40
2022-08-23T20:08:37.687Z,2.13
2022-08-23T20:13:42.056Z,1.88
2022-08-23T20:16:13.921Z,2.60
2022-08-23T20:18:46.156Z,2.10
2022-08-23T20:21:18.016Z,2.35
2022-08-23T20:24:01.465Z,2.40
2022-08-23T20:26:33.881Z,2.55
2022-08-23T20:29:05.374Z,2.67
2022-08-23T20:31:37.275Z,2.67
2022-08-23T20:34:08.918Z,2.85
2022-08-23T20:36:41.352Z,2.40
2022-08-23T20:39:12.944Z,2.00
2022-08-23T20:41:44.926Z,1.85
2022-08-23T20:44:17.042Z,2.00
2022-08-23T20:46:53.700Z,2.60
2022-08-23T20:49:26.295Z,1.90
2022-08-23T20:51:57.837Z,1.90
2022-08-23T20:54:29.362Z,1.63
2022-08-23T20:57:01.189Z,2.28
2022-08-23T20:59:32.691Z,1.80
2022-08-23T21:02:04.734Z,1.98
2022-08-23T21:04:36.603Z,1.97
2022-08-23T21:07:11.751Z,2.33
2022-08-23T21:09:43.593Z,1.70
2022-08-23T21:12:15.092Z,2.25
2022-08-23T21:14:47.400Z,1.90
2022-08-23T21:17:18.904Z,2.00
2022-08-23T21:19:50.843Z,1.98
2022-08-23T21:22:22.401Z,1.60
2022-08-23T21:25:02.337Z,1.70
2022-08-23T21:27:34.577Z,1.73
2022-08-23T21:30:06.642Z,2.03
2022-08-23T21:32:38.184Z,1.53
2022-08-23T21:35:10.261Z,1.90
2022-08-23T21:37:41.782Z,2.30
2022-08-23T21:40:13.430Z,1.95
2022-08-23T21:42:45.024Z,1.92
2022-08-23T21:45:16.908Z,1.80
2022-08-23T21:47:48.412Z,2.15
2022-08-23T21:50:20.357Z,1.95
2022-08-23T21:52:56.722Z,1.60
2022-08-23T21:55:31.723Z,1.98
2022-08-23T21:58:07.911Z,2.03
2022-08-23T22:00:39.888Z,1.60
2022-08-23T22:03:11.478Z,1.77
2022-08-23T22:05:43.100Z,2.28
2022-08-23T22:08:14.676Z,1.70
2022-08-23T22:10:58.188Z,1.60
2022-08-23T22:13:29.965Z,1.70
2022-08-23T22:18:33.533Z,2.00
2022-08-23T22:21:05.120Z,1.77
2022-08-23T22:23:36.708Z,1.20
2022-08-23T22:26:08.282Z,1.50
2022-08-23T22:28:44.283Z,1.35
2022-08-23T22:31:16.444Z,1.40
2022-08-23T22:33:48.503Z,1.27
2022-08-23T22:36:20.722Z,1.67
2022-08-23T22:38:52.270Z,1.20
2022-08-23T22:41:27.718Z,1.70
2022-08-23T22:43:59.678Z,1.30
2022-08-23T22:46:31.255Z,1.25
2022-08-23T22:49:03.819Z,1.70
2022-08-23T22:51:35.342Z,1.25
2022-08-23T22:54:07.307Z,1.40
2022-08-23T22:56:38.850Z,1.35
2022-08-23T22:59:10.700Z,1.13
2022-08-23T23:01:42.234Z,1.10
2022-08-23T23:04:16.237Z,1.48
2022-08-23T23:06:48.973Z,1.10
2022-08-23T23:09:20.917Z,1.38
2022-08-23T23:11:52.565Z,1.40
2022-08-23T23:14:24.552Z,1.65
2022-08-23T23:16:56.178Z,1.45
2022-08-23T23:19:46.778Z,1.50
2022-08-23T23:22:18.284Z,1.20
2022-08-23T23:24:50.209Z,1.20
2022-08-23T23:27:21.739Z,1.73
2022-08-23T23:29:53.739Z,1.27
2022-08-23T23:32:25.261Z,1.17
2022-08-23T23:34:57.320Z,1.08
2022-08-23T23:37:32.361Z,0.80
2022-08-23T23:40:04.431Z,1.10
2022-08-23T23:42:36.014Z,1.43
2022-08-23T23:45:07.814Z,0.93
2022-08-23T23:47:39.381Z,1.38
2022-08-23T23:50:11.448Z,0.82
2022-08-23T23:52:42.977Z,1.13
2022-08-23T23:55:15.010Z,1.17
2022-08-23T23:57:46.521Z,1.30
